sensor_id;sensor_type;location;lat;lon;timestamp;temperature;humidity
516;DHT22;244;48.508;9.052;2024-03-29T00:00:47;5.60;14.40
516;DHT22;244;48.508;9.052;2024-03-29T00:03:13;5.50;14.30
516;DHT22;244;48.508;9.052;2024-03-29T00:05:39;5.50;14.30
516;DHT22;244;48.508;9.052;2024-03-29T00:08:05;5.50;14.30
516;DHT22;244;48.508;9.052;2024-03-29T00:10:32;5.40;14.20
516;DHT22;244;48.508;9.052;2024-03-29T00:12:59;5.30;14.70
516;DHT22;244;48.508;9.052;2024-03-29T00:15:25;5.30;14.30
516;DHT22;244;48.508;9.052;2024-03-29T00:17:52;5.20;14.20
516;DHT22;244;48.508;9.052;2024-03-29T00:20:18;5.10;14.20
516;DHT22;244;48.508;9.052;2024-03-29T00:22:44;5.10;14.30
516;DHT22;244;48.508;9.052;2024-03-29T00:25:10;5.00;14.40
516;DHT22;244;48.508;9.052;2024-03-29T00:27:36;5.10;14.40
516;DHT22;244;48.508;9.052;2024-03-29T00:30:02;5.10;14.40
516;DHT22;244;48.508;9.052;2024-03-29T00:32:28;5.10;14.40
516;DHT22;244;48.508;9.052;2024-03-29T00:34:56;5.00;14.40
516;DHT22;244;48.508;9.052;2024-03-29T00:37:23;5.00;14.40
516;DHT22;244;48.508;9.052;2024-03-29T00:39:49;5.00;14.60
516;DHT22;244;48.508;9.052;2024-03-29T00:42:15;4.90;14.60
516;DHT22;244;48.508;9.052;2024-03-29T00:44:41;4.90;14.60
516;DHT22;244;48.508;9.052;2024-03-29T00:47:07;4.80;14.60
516;DHT22;244;48.508;9.052;2024-03-29T00:49:33;4.80;14.80
516;DHT22;244;48.508;9.052;2024-03-29T00:52:01;4.80;14.80
516;DHT22;244;48.508;9.052;2024-03-29T00:54:28;4.80;15.00
516;DHT22;244;48.508;9.052;2024-03-29T00:56:56;4.80;15.10
516;DHT22;244;48.508;9.052;2024-03-29T00:59:22;4.80;15.10
516;DHT22;244;48.508;9.052;2024-03-29T01:01:51;4.80;15.10
516;DHT22;244;48.508;9.052;2024-03-29T01:04:17;4.70;15.00
516;DHT22;244;48.508;9.052;2024-03-29T01:06:43;4.70;15.00
516;DHT22;244;48.508;9.052;2024-03-29T01:09:10;4.70;15.60
516;DHT22;244;48.508;9.052;2024-03-29T01:11:37;4.70;15.00
516;DHT22;244;48.508;9.052;2024-03-29T01:14:03;4.70;14.90
516;DHT22;244;48.508;9.052;2024-03-29T01:16:29;4.70;14.90
516;DHT22;244;48.508;9.052;2024-03-29T01:18:55;4.60;14.80
516;DHT22;244;48.508;9.052;2024-03-29T01:21:21;4.60;14.70
516;DHT22;244;48.508;9.052;2024-03-29T01:23:47;4.60;14.80
516;DHT22;244;48.508;9.052;2024-03-29T01:26:17;4.60;14.80
516;DHT22;244;48.508;9.052;2024-03-29T01:28:43;4.60;14.80
516;DHT22;244;48.508;9.052;2024-03-29T01:31:09;4.60;14.80
516;DHT22;244;48.508;9.052;2024-03-29T01:33:35;4.60;14.80
516;DHT22;244;48.508;9.052;2024-03-29T01:36:02;4.60;14.80
516;DHT22;244;48.508;9.052;2024-03-29T01:38:28;4.60;14.80
516;DHT22;244;48.508;9.052;2024-03-29T01:40:57;4.70;14.90
516;DHT22;244;48.508;9.052;2024-03-29T01:43:24;4.70;14.90
516;DHT22;244;48.508;9.052;2024-03-29T01:45:54;4.70;15.00
516;DHT22;244;48.508;9.052;2024-03-29T01:48:21;4.80;15.00
516;DHT22;244;48.508;9.052;2024-03-29T01:50:50;4.80;15.00
516;DHT22;244;48.508;9.052;2024-03-29T01:53:19;4.90;15.00
516;DHT22;244;48.508;9.052;2024-03-29T01:55:46;4.90;14.90
516;DHT22;244;48.508;9.052;2024-03-29T01:58:14;4.90;14.90
516;DHT22;244;48.508;9.052;2024-03-29T02:00:48;4.90;14.90
516;DHT22;244;48.508;9.052;2024-03-29T02:03:17;5.00;14.80
516;DHT22;244;48.508;9.052;2024-03-29T02:05:45;5.00;14.80
516;DHT22;244;48.508;9.052;2024-03-29T02:08:14;5.00;14.80
516;DHT22;244;48.508;9.052;2024-03-29T02:10:40;5.00;14.80
516;DHT22;244;48.508;9.052;2024-03-29T02:13:08;5.00;14.80
516;DHT22;244;48.508;9.052;2024-03-29T02:15:35;5.10;14.90
516;DHT22;244;48.508;9.052;2024-03-29T02:18:04;5.10;14.80
516;DHT22;244;48.508;9.052;2024-03-29T02:20:31;5.10;14.80
516;DHT22;244;48.508;9.052;2024-03-29T02:23:02;5.10;14.80
516;DHT22;244;48.508;9.052;2024-03-29T02:25:31;5.10;14.80
516;DHT22;244;48.508;9.052;2024-03-29T02:27:59;5.10;14.80
516;DHT22;244;48.508;9.052;2024-03-29T02:30:26;5.10;14.80
516;DHT22;244;48.508;9.052;2024-03-29T02:32:54;5.10;14.80
516;DHT22;244;48.508;9.052;2024-03-29T02:35:21;5.10;14.90
516;DHT22;244;48.508;9.052;2024-03-29T02:37:48;5.10;14.90
516;DHT22;244;48.508;9.052;2024-03-29T02:40:15;5.10;14.90
516;DHT22;244;48.508;9.052;2024-03-29T02:42:43;5.10;14.90
516;DHT22;244;48.508;9.052;2024-03-29T02:45:10;5.00;15.00
516;DHT22;244;48.508;9.052;2024-03-29T02:47:37;5.00;15.00
516;DHT22;244;48.508;9.052;2024-03-29T02:50:05;5.00;15.10
516;DHT22;244;48.508;9.052;2024-03-29T02:52:32;4.90;15.10
516;DHT22;244;48.508;9.052;2024-03-29T02:54:59;4.90;15.20
516;DHT22;244;48.508;9.052;2024-03-29T02:57:28;4.90;15.20
516;DHT22;244;48.508;9.052;2024-03-29T02:59:59;4.90;15.20
516;DHT22;244;48.508;9.052;2024-03-29T03:02:25;4.90;15.20
516;DHT22;244;48.508;9.052;2024-03-29T03:04:52;4.90;15.10
516;DHT22;244;48.508;9.052;2024-03-29T03:07:18;4.90;15.10
516;DHT22;244;48.508;9.052;2024-03-29T03:10:02;4.90;15.10
516;DHT22;244;48.508;9.052;2024-03-29T03:12:47;5.00;15.20
516;DHT22;244;48.508;9.052;2024-03-29T03:15:15;5.00;15.20
516;DHT22;244;48.508;9.052;2024-03-29T03:17:42;5.00;15.20
516;DHT22;244;48.508;9.052;2024-03-29T03:20:09;5.00;15.30
516;DHT22;244;48.508;9.052;2024-03-29T03:22:35;5.00;15.20
516;DHT22;244;48.508;9.052;2024-03-29T03:25:03;5.00;15.20
516;DHT22;244;48.508;9.052;2024-03-29T03:27:29;5.00;15.20
516;DHT22;244;48.508;9.052;2024-03-29T03:29:55;5.00;15.20
516;DHT22;244;48.508;9.052;2024-03-29T03:32:23;5.10;15.30
516;DHT22;244;48.508;9.052;2024-03-29T03:34:50;5.10;15.30
516;DHT22;244;48.508;9.052;2024-03-29T03:37:15;5.10;15.20
516;DHT22;244;48.508;9.052;2024-03-29T03:39:42;5.10;15.20
516;DHT22;244;48.508;9.052;2024-03-29T03:42:08;5.10;15.20
516;DHT22;244;48.508;9.052;2024-03-29T03:44:35;5.20;15.30
516;DHT22;244;48.508;9.052;2024-03-29T03:47:01;5.20;15.30
516;DHT22;244;48.508;9.052;2024-03-29T03:49:29;5.20;15.20
516;DHT22;244;48.508;9.052;2024-03-29T03:51:55;5.30;15.30
516;DHT22;244;48.508;9.052;2024-03-29T03:54:23;5.30;15.50
516;DHT22;244;48.508;9.052;2024-03-29T03:56:49;5.30;15.40
516;DHT22;244;48.508;9.052;2024-03-29T03:59:16;5.30;15.30
516;DHT22;244;48.508;9.052;2024-03-29T04:01:42;5.40;15.30
516;DHT22;244;48.508;9.052;2024-03-29T04:04:09;5.40;15.30
516;DHT22;244;48.508;9.052;2024-03-29T04:06:36;5.40;15.40
516;DHT22;244;48.508;9.052;2024-03-29T04:09:03;5.40;15.50
516;DHT22;244;48.508;9.052;2024-03-29T04:11:29;5.40;15.50
516;DHT22;244;48.508;9.052;2024-03-29T04:13:58;5.50;15.40
516;DHT22;244;48.508;9.052;2024-03-29T04:16:24;5.50;15.50
516;DHT22;244;48.508;9.052;2024-03-29T04:18:50;5.50;15.50
516;DHT22;244;48.508;9.052;2024-03-29T04:21:16;5.60;15.50
516;DHT22;244;48.508;9.052;2024-03-29T04:23:45;5.60;15.50
516;DHT22;244;48.508;9.052;2024-03-29T04:26:12;5.70;15.50
516;DHT22;244;48.508;9.052;2024-03-29T04:28:37;5.70;15.40
516;DHT22;244;48.508;9.052;2024-03-29T04:31:04;5.80;15.40
516;DHT22;244;48.508;9.052;2024-03-29T04:33:30;5.90;15.40
516;DHT22;244;48.508;9.052;2024-03-29T04:35:58;5.90;15.90
516;DHT22;244;48.508;9.052;2024-03-29T04:38:26;6.00;15.30
516;DHT22;244;48.508;9.052;2024-03-29T04:40:55;6.00;15.20
516;DHT22;244;48.508;9.052;2024-03-29T04:43:24;6.00;15.20
516;DHT22;244;48.508;9.052;2024-03-29T04:46:00;6.00;15.10
516;DHT22;244;48.508;9.052;2024-03-29T04:48:27;6.00;15.00
516;DHT22;244;48.508;9.052;2024-03-29T04:50:54;6.00;15.00
516;DHT22;244;48.508;9.052;2024-03-29T04:53:21;6.00;15.10
516;DHT22;244;48.508;9.052;2024-03-29T04:55:54;6.00;15.10
516;DHT22;244;48.508;9.052;2024-03-29T04:58:21;5.90;15.10
516;DHT22;244;48.508;9.052;2024-03-29T05:00:48;5.90;15.20
516;DHT22;244;48.508;9.052;2024-03-29T05:03:17;6.00;15.20
516;DHT22;244;48.508;9.052;2024-03-29T05:05:44;6.00;15.20
516;DHT22;244;48.508;9.052;2024-03-29T05:08:11;6.00;15.20
516;DHT22;244;48.508;9.052;2024-03-29T05:10:39;6.00;15.20
516;DHT22;244;48.508;9.052;2024-03-29T05:13:07;6.00;15.20
516;DHT22;244;48.508;9.052;2024-03-29T05:15:34;5.90;15.20
516;DHT22;244;48.508;9.052;2024-03-29T05:18:02;6.00;15.30
516;DHT22;244;48.508;9.052;2024-03-29T05:20:29;6.00;15.30
516;DHT22;244;48.508;9.052;2024-03-29T05:22:57;6.00;15.20
516;DHT22;244;48.508;9.052;2024-03-29T05:25:24;6.00;15.20
516;DHT22;244;48.508;9.052;2024-03-29T05:27:51;6.00;15.30
516;DHT22;244;48.508;9.052;2024-03-29T05:30:19;6.00;15.40
516;DHT22;244;48.508;9.052;2024-03-29T05:32:46;6.00;15.50
516;DHT22;244;48.508;9.052;2024-03-29T05:35:13;6.00;15.50
516;DHT22;244;48.508;9.052;2024-03-29T05:37:40;6.00;15.50
516;DHT22;244;48.508;9.052;2024-03-29T05:40:08;6.00;15.60
516;DHT22;244;48.508;9.052;2024-03-29T05:42:35;6.10;15.60
516;DHT22;244;48.508;9.052;2024-03-29T05:45:04;6.10;15.60
516;DHT22;244;48.508;9.052;2024-03-29T05:47:35;6.20;15.60
516;DHT22;244;48.508;9.052;2024-03-29T05:50:02;6.30;15.60
516;DHT22;244;48.508;9.052;2024-03-29T05:52:28;6.40;15.60
516;DHT22;244;48.508;9.052;2024-03-29T05:54:54;6.50;15.50
516;DHT22;244;48.508;9.052;2024-03-29T05:57:21;6.60;15.40
516;DHT22;244;48.508;9.052;2024-03-29T05:59:55;6.60;15.30
516;DHT22;244;48.508;9.052;2024-03-29T06:02:22;6.60;15.30
516;DHT22;244;48.508;9.052;2024-03-29T06:04:50;6.70;15.20
516;DHT22;244;48.508;9.052;2024-03-29T06:07:17;6.80;15.20
516;DHT22;244;48.508;9.052;2024-03-29T06:09:44;7.00;15.20
516;DHT22;244;48.508;9.052;2024-03-29T06:12:11;7.10;15.00
516;DHT22;244;48.508;9.052;2024-03-29T06:14:38;7.30;14.90
516;DHT22;244;48.508;9.052;2024-03-29T06:17:22;7.40;14.80
516;DHT22;244;48.508;9.052;2024-03-29T06:19:51;7.50;14.70
516;DHT22;244;48.508;9.052;2024-03-29T06:22:20;7.60;14.50
516;DHT22;244;48.508;9.052;2024-03-29T06:24:48;7.70;14.50
516;DHT22;244;48.508;9.052;2024-03-29T06:27:17;7.80;14.40
516;DHT22;244;48.508;9.052;2024-03-29T06:29:46;7.80;14.40
516;DHT22;244;48.508;9.052;2024-03-29T06:32:13;7.90;14.30
516;DHT22;244;48.508;9.052;2024-03-29T06:34:43;8.00;14.30
516;DHT22;244;48.508;9.052;2024-03-29T06:37:11;8.10;14.40
516;DHT22;244;48.508;9.052;2024-03-29T06:39:38;8.30;14.50
516;DHT22;244;48.508;9.052;2024-03-29T06:42:05;8.40;14.50
516;DHT22;244;48.508;9.052;2024-03-29T06:44:33;8.40;14.30
516;DHT22;244;48.508;9.052;2024-03-29T06:47:00;8.50;14.10
516;DHT22;244;48.508;9.052;2024-03-29T06:49:27;8.50;14.00
516;DHT22;244;48.508;9.052;2024-03-29T06:51:54;8.50;14.00
516;DHT22;244;48.508;9.052;2024-03-29T06:54:22;8.50;13.90
516;DHT22;244;48.508;9.052;2024-03-29T06:56:52;8.50;13.80
516;DHT22;244;48.508;9.052;2024-03-29T06:59:19;8.50;13.80
516;DHT22;244;48.508;9.052;2024-03-29T07:01:46;8.50;13.80
516;DHT22;244;48.508;9.052;2024-03-29T07:04:15;8.50;13.80
516;DHT22;244;48.508;9.052;2024-03-29T07:06:42;8.60;13.80
516;DHT22;244;48.508;9.052;2024-03-29T07:09:13;8.60;13.80
516;DHT22;244;48.508;9.052;2024-03-29T07:11:41;8.60;13.70
516;DHT22;244;48.508;9.052;2024-03-29T07:14:08;8.50;13.60
516;DHT22;244;48.508;9.052;2024-03-29T07:16:35;8.40;14.10
516;DHT22;244;48.508;9.052;2024-03-29T07:19:01;8.40;13.60
516;DHT22;244;48.508;9.052;2024-03-29T07:21:30;8.30;13.60
516;DHT22;244;48.508;9.052;2024-03-29T07:23:57;8.30;13.80
516;DHT22;244;48.508;9.052;2024-03-29T07:26:24;8.30;13.80
516;DHT22;244;48.508;9.052;2024-03-29T07:28:52;8.10;13.90
516;DHT22;244;48.508;9.052;2024-03-29T07:31:19;8.00;14.30
516;DHT22;244;48.508;9.052;2024-03-29T07:33:46;8.00;14.40
516;DHT22;244;48.508;9.052;2024-03-29T07:36:13;7.90;14.30
516;DHT22;244;48.508;9.052;2024-03-29T07:38:42;7.90;14.70
516;DHT22;244;48.508;9.052;2024-03-29T07:41:09;7.80;15.10
516;DHT22;244;48.508;9.052;2024-03-29T07:43:39;7.80;16.00
516;DHT22;244;48.508;9.052;2024-03-29T07:46:08;7.80;15.80
516;DHT22;244;48.508;9.052;2024-03-29T07:48:35;7.90;16.00
516;DHT22;244;48.508;9.052;2024-03-29T07:51:01;8.00;16.10
516;DHT22;244;48.508;9.052;2024-03-29T07:53:28;8.00;16.50
516;DHT22;244;48.508;9.052;2024-03-29T07:55:55;8.00;17.00
516;DHT22;244;48.508;9.052;2024-03-29T07:58:22;8.10;17.60
516;DHT22;244;48.508;9.052;2024-03-29T08:00:49;8.20;17.80
516;DHT22;244;48.508;9.052;2024-03-29T08:03:17;8.30;17.90
516;DHT22;244;48.508;9.052;2024-03-29T08:05:57;8.40;18.20
516;DHT22;244;48.508;9.052;2024-03-29T08:08:24;8.50;18.50
516;DHT22;244;48.508;9.052;2024-03-29T08:10:52;8.50;19.00
516;DHT22;244;48.508;9.052;2024-03-29T08:13:19;8.50;19.20
516;DHT22;244;48.508;9.052;2024-03-29T08:15:48;8.50;19.80
516;DHT22;244;48.508;9.052;2024-03-29T08:18:14;8.50;20.70
516;DHT22;244;48.508;9.052;2024-03-29T08:20:43;8.50;20.30
516;DHT22;244;48.508;9.052;2024-03-29T08:23:09;8.50;20.60
516;DHT22;244;48.508;9.052;2024-03-29T08:25:37;8.50;20.80
516;DHT22;244;48.508;9.052;2024-03-29T08:28:04;8.60;20.90
516;DHT22;244;48.508;9.052;2024-03-29T08:30:31;8.70;21.00
516;DHT22;244;48.508;9.052;2024-03-29T08:33:01;8.80;20.90
516;DHT22;244;48.508;9.052;2024-03-29T08:35:29;9.00;21.00
516;DHT22;244;48.508;9.052;2024-03-29T08:37:57;9.10;21.30
516;DHT22;244;48.508;9.052;2024-03-29T08:40:27;9.20;21.60
516;DHT22;244;48.508;9.052;2024-03-29T08:42:54;9.20;22.20
516;DHT22;244;48.508;9.052;2024-03-29T08:45:21;9.30;21.50
516;DHT22;244;48.508;9.052;2024-03-29T08:47:48;9.40;21.70
516;DHT22;244;48.508;9.052;2024-03-29T08:50:15;9.40;22.00
516;DHT22;244;48.508;9.052;2024-03-29T08:52:42;9.50;22.00
516;DHT22;244;48.508;9.052;2024-03-29T08:55:11;9.50;22.20
516;DHT22;244;48.508;9.052;2024-03-29T08:57:38;9.60;22.00
516;DHT22;244;48.508;9.052;2024-03-29T09:00:07;9.60;22.00
516;DHT22;244;48.508;9.052;2024-03-29T09:02:34;9.60;22.00
516;DHT22;244;48.508;9.052;2024-03-29T09:05:01;9.60;22.10
516;DHT22;244;48.508;9.052;2024-03-29T09:07:28;9.70;22.30
516;DHT22;244;48.508;9.052;2024-03-29T09:09:55;9.80;22.40
516;DHT22;244;48.508;9.052;2024-03-29T09:12:23;9.90;22.40
516;DHT22;244;48.508;9.052;2024-03-29T09:14:50;10.00;21.40
516;DHT22;244;48.508;9.052;2024-03-29T09:17:19;10.10;21.30
516;DHT22;244;48.508;9.052;2024-03-29T09:19:49;10.20;21.30
516;DHT22;244;48.508;9.052;2024-03-29T09:22:17;10.30;21.20
516;DHT22;244;48.508;9.052;2024-03-29T09:24:44;10.20;20.80
516;DHT22;244;48.508;9.052;2024-03-29T09:27:11;10.20;21.10
516;DHT22;244;48.508;9.052;2024-03-29T09:29:39;10.10;21.10
516;DHT22;244;48.508;9.052;2024-03-29T09:32:06;10.10;21.20
516;DHT22;244;48.508;9.052;2024-03-29T09:34:33;10.10;21.40
516;DHT22;244;48.508;9.052;2024-03-29T09:37:00;10.20;21.50
516;DHT22;244;48.508;9.052;2024-03-29T09:39:27;10.50;21.40
516;DHT22;244;48.508;9.052;2024-03-29T09:41:56;10.70;21.20
516;DHT22;244;48.508;9.052;2024-03-29T09:44:27;11.20;21.20
516;DHT22;244;48.508;9.052;2024-03-29T09:46:56;11.60;20.40
516;DHT22;244;48.508;9.052;2024-03-29T09:49:25;12.00;20.10
516;DHT22;244;48.508;9.052;2024-03-29T09:51:52;12.20;19.70
516;DHT22;244;48.508;9.052;2024-03-29T09:54:19;12.40;19.80
516;DHT22;244;48.508;9.052;2024-03-29T09:56:48;12.60;19.30
516;DHT22;244;48.508;9.052;2024-03-29T09:59:16;12.80;19.10
516;DHT22;244;48.508;9.052;2024-03-29T10:01:43;12.90;18.90
516;DHT22;244;48.508;9.052;2024-03-29T10:04:12;13.00;19.10
516;DHT22;244;48.508;9.052;2024-03-29T10:06:40;13.20;18.70
516;DHT22;244;48.508;9.052;2024-03-29T10:09:08;13.30;18.40
516;DHT22;244;48.508;9.052;2024-03-29T10:11:36;13.50;18.40
516;DHT22;244;48.508;9.052;2024-03-29T10:14:03;13.60;18.40
516;DHT22;244;48.508;9.052;2024-03-29T10:16:31;13.80;18.50
516;DHT22;244;48.508;9.052;2024-03-29T10:18:59;14.10;18.70
516;DHT22;244;48.508;9.052;2024-03-29T10:21:27;14.30;18.80
516;DHT22;244;48.508;9.052;2024-03-29T10:23:54;14.60;18.60
516;DHT22;244;48.508;9.052;2024-03-29T10:26:21;14.70;18.00
516;DHT22;244;48.508;9.052;2024-03-29T10:28:48;14.80;17.60
516;DHT22;244;48.508;9.052;2024-03-29T10:31:17;14.90;17.50
516;DHT22;244;48.508;9.052;2024-03-29T10:33:45;15.20;16.60
516;DHT22;244;48.508;9.052;2024-03-29T10:36:13;15.30;16.70
516;DHT22;244;48.508;9.052;2024-03-29T10:38:42;15.50;16.90
516;DHT22;244;48.508;9.052;2024-03-29T10:41:10;15.70;17.00
516;DHT22;244;48.508;9.052;2024-03-29T10:43:39;16.00;17.00
516;DHT22;244;48.508;9.052;2024-03-29T10:46:07;16.20;16.90
516;DHT22;244;48.508;9.052;2024-03-29T10:48:35;16.40;16.00
516;DHT22;244;48.508;9.052;2024-03-29T10:51:03;16.60;16.10
516;DHT22;244;48.508;9.052;2024-03-29T10:53:31;16.80;16.20
516;DHT22;244;48.508;9.052;2024-03-29T10:56:00;16.90;16.00
516;DHT22;244;48.508;9.052;2024-03-29T10:58:30;17.10;15.50
516;DHT22;244;48.508;9.052;2024-03-29T11:00:57;17.30;14.30
516;DHT22;244;48.508;9.052;2024-03-29T11:03:32;17.40;14.20
516;DHT22;244;48.508;9.052;2024-03-29T11:06:03;17.50;14.80
516;DHT22;244;48.508;9.052;2024-03-29T11:08:33;17.80;15.00
516;DHT22;244;48.508;9.052;2024-03-29T11:11:05;17.80;14.40
516;DHT22;244;48.508;9.052;2024-03-29T11:13:38;17.90;15.40
516;DHT22;244;48.508;9.052;2024-03-29T11:16:08;18.10;16.00
516;DHT22;244;48.508;9.052;2024-03-29T11:18:35;18.30;16.50
516;DHT22;244;48.508;9.052;2024-03-29T11:21:04;18.40;16.40
516;DHT22;244;48.508;9.052;2024-03-29T11:23:33;18.60;16.60
516;DHT22;244;48.508;9.052;2024-03-29T11:26:01;18.60;16.50
516;DHT22;244;48.508;9.052;2024-03-29T11:28:30;18.80;16.60
516;DHT22;244;48.508;9.052;2024-03-29T11:31:00;18.90;16.50
516;DHT22;244;48.508;9.052;2024-03-29T11:33:31;18.90;16.50
516;DHT22;244;48.508;9.052;2024-03-29T11:35:59;18.90;16.50
516;DHT22;244;48.508;9.052;2024-03-29T11:38:31;18.80;16.20
516;DHT22;244;48.508;9.052;2024-03-29T11:41:02;18.80;15.70
516;DHT22;244;48.508;9.052;2024-03-29T11:43:31;18.70;15.70
516;DHT22;244;48.508;9.052;2024-03-29T11:45:59;18.80;15.80
516;DHT22;244;48.508;9.052;2024-03-29T11:48:28;18.90;14.90
516;DHT22;244;48.508;9.052;2024-03-29T11:50:55;19.10;14.30
516;DHT22;244;48.508;9.052;2024-03-29T11:53:22;19.20;14.90
516;DHT22;244;48.508;9.052;2024-03-29T11:55:49;19.40;15.10
516;DHT22;244;48.508;9.052;2024-03-29T11:58:20;19.70;15.40
516;DHT22;244;48.508;9.052;2024-03-29T12:00:49;19.90;15.50
516;DHT22;244;48.508;9.052;2024-03-29T12:03:16;20.20;15.30
516;DHT22;244;48.508;9.052;2024-03-29T12:05:43;20.60;14.70
516;DHT22;244;48.508;9.052;2024-03-29T12:08:10;20.70;14.50
516;DHT22;244;48.508;9.052;2024-03-29T12:10:37;20.80;13.90
516;DHT22;244;48.508;9.052;2024-03-29T12:13:05;20.90;12.00
516;DHT22;244;48.508;9.052;2024-03-29T12:15:32;21.00;11.70
516;DHT22;244;48.508;9.052;2024-03-29T12:18:01;21.20;11.90
516;DHT22;244;48.508;9.052;2024-03-29T12:20:30;21.30;10.00
516;DHT22;244;48.508;9.052;2024-03-29T12:22:59;21.40;9.40
516;DHT22;244;48.508;9.052;2024-03-29T12:25:27;21.40;10.30
516;DHT22;244;48.508;9.052;2024-03-29T12:27:54;21.50;9.10
516;DHT22;244;48.508;9.052;2024-03-29T12:30:21;21.50;7.90
516;DHT22;244;48.508;9.052;2024-03-29T12:32:48;21.50;7.80
516;DHT22;244;48.508;9.052;2024-03-29T12:35:16;21.50;8.50
516;DHT22;244;48.508;9.052;2024-03-29T12:37:50;21.40;9.10
516;DHT22;244;48.508;9.052;2024-03-29T12:40:19;21.30;9.50
516;DHT22;244;48.508;9.052;2024-03-29T12:42:48;21.20;9.40
516;DHT22;244;48.508;9.052;2024-03-29T12:45:17;21.10;9.30
516;DHT22;244;48.508;9.052;2024-03-29T12:47:45;21.00;9.30
516;DHT22;244;48.508;9.052;2024-03-29T12:50:13;21.20;8.50
516;DHT22;244;48.508;9.052;2024-03-29T12:52:42;21.40;8.70
516;DHT22;244;48.508;9.052;2024-03-29T12:55:09;21.50;9.10
516;DHT22;244;48.508;9.052;2024-03-29T12:57:37;21.50;8.60
516;DHT22;244;48.508;9.052;2024-03-29T13:00:07;21.30;8.40
516;DHT22;244;48.508;9.052;2024-03-29T13:02:35;21.10;7.00
516;DHT22;244;48.508;9.052;2024-03-29T13:05:03;20.90;6.10
516;DHT22;244;48.508;9.052;2024-03-29T13:07:31;20.80;6.00
516;DHT22;244;48.508;9.052;2024-03-29T13:09:59;20.70;6.10
516;DHT22;244;48.508;9.052;2024-03-29T13:12:28;20.60;6.00
516;DHT22;244;48.508;9.052;2024-03-29T13:14:56;20.60;6.50
516;DHT22;244;48.508;9.052;2024-03-29T13:17:23;20.70;6.40
516;DHT22;244;48.508;9.052;2024-03-29T13:19:49;20.70;5.60
516;DHT22;244;48.508;9.052;2024-03-29T13:22:16;20.70;5.30
516;DHT22;244;48.508;9.052;2024-03-29T13:24:44;20.70;3.90
516;DHT22;244;48.508;9.052;2024-03-29T13:27:12;20.70;4.20
516;DHT22;244;48.508;9.052;2024-03-29T13:29:39;20.80;4.70
516;DHT22;244;48.508;9.052;2024-03-29T13:32:06;20.90;3.90
516;DHT22;244;48.508;9.052;2024-03-29T13:34:33;20.80;3.50
516;DHT22;244;48.508;9.052;2024-03-29T13:37:00;20.80;4.10
516;DHT22;244;48.508;9.052;2024-03-29T13:39:27;20.90;4.10
516;DHT22;244;48.508;9.052;2024-03-29T13:41:54;20.90;4.10
516;DHT22;244;48.508;9.052;2024-03-29T13:44:22;21.00;4.10
516;DHT22;244;48.508;9.052;2024-03-29T13:46:49;21.10;4.30
516;DHT22;244;48.508;9.052;2024-03-29T13:49:17;21.20;4.30
516;DHT22;244;48.508;9.052;2024-03-29T13:51:46;21.30;4.40
516;DHT22;244;48.508;9.052;2024-03-29T13:54:13;21.40;3.80
516;DHT22;244;48.508;9.052;2024-03-29T13:56:40;21.40;2.50
516;DHT22;244;48.508;9.052;2024-03-29T13:59:07;21.40;1.60
516;DHT22;244;48.508;9.052;2024-03-29T14:01:35;21.30;1.50
516;DHT22;244;48.508;9.052;2024-03-29T14:04:02;21.30;1.50
516;DHT22;244;48.508;9.052;2024-03-29T14:06:29;21.30;1.20
516;DHT22;244;48.508;9.052;2024-03-29T14:08:56;21.20;1.00
516;DHT22;244;48.508;9.052;2024-03-29T14:11:22;21.20;1.10
516;DHT22;244;48.508;9.052;2024-03-29T14:13:49;21.30;1.50
516;DHT22;244;48.508;9.052;2024-03-29T14:16:21;21.40;1.50
516;DHT22;244;48.508;9.052;2024-03-29T14:18:48;21.50;1.40
516;DHT22;244;48.508;9.052;2024-03-29T14:21:15;21.60;1.40
516;DHT22;244;48.508;9.052;2024-03-29T14:23:42;21.70;1.40
516;DHT22;244;48.508;9.052;2024-03-29T14:26:09;21.80;1.40
516;DHT22;244;48.508;9.052;2024-03-29T14:28:36;21.80;1.20
516;DHT22;244;48.508;9.052;2024-03-29T14:31:03;21.90;1.00
516;DHT22;244;48.508;9.052;2024-03-29T14:33:30;21.90;1.00
516;DHT22;244;48.508;9.052;2024-03-29T14:35:58;22.00;1.00
516;DHT22;244;48.508;9.052;2024-03-29T14:38:25;22.00;1.00
516;DHT22;244;48.508;9.052;2024-03-29T14:40:52;22.10;1.00
516;DHT22;244;48.508;9.052;2024-03-29T14:43:19;22.20;1.00
516;DHT22;244;48.508;9.052;2024-03-29T14:45:46;22.20;1.00
516;DHT22;244;48.508;9.052;2024-03-29T14:48:14;22.30;1.00
516;DHT22;244;48.508;9.052;2024-03-29T14:50:43;22.30;1.00
516;DHT22;244;48.508;9.052;2024-03-29T14:53:12;22.50;1.00
516;DHT22;244;48.508;9.052;2024-03-29T14:55:39;22.80;1.00
516;DHT22;244;48.508;9.052;2024-03-29T14:58:06;23.20;1.00
516;DHT22;244;48.508;9.052;2024-03-29T15:00:33;23.70;1.00
516;DHT22;244;48.508;9.052;2024-03-29T15:03:00;24.20;1.00
516;DHT22;244;48.508;9.052;2024-03-29T15:05:26;24.60;1.00
516;DHT22;244;48.508;9.052;2024-03-29T15:07:53;25.00;1.00
516;DHT22;244;48.508;9.052;2024-03-29T15:10:22;25.30;1.00
516;DHT22;244;48.508;9.052;2024-03-29T15:12:49;25.40;1.00
516;DHT22;244;48.508;9.052;2024-03-29T15:15:16;25.60;1.00
516;DHT22;244;48.508;9.052;2024-03-29T15:17:43;25.80;1.00
516;DHT22;244;48.508;9.052;2024-03-29T15:20:11;25.80;1.00
516;DHT22;244;48.508;9.052;2024-03-29T15:22:41;25.80;1.00
516;DHT22;244;48.508;9.052;2024-03-29T15:25:09;25.50;1.00
516;DHT22;244;48.508;9.052;2024-03-29T15:27:38;25.20;1.00
516;DHT22;244;48.508;9.052;2024-03-29T15:30:22;24.90;1.00
516;DHT22;244;48.508;9.052;2024-03-29T15:32:49;24.50;1.00
516;DHT22;244;48.508;9.052;2024-03-29T15:35:16;24.10;1.00
516;DHT22;244;48.508;9.052;2024-03-29T15:37:42;23.60;1.00
516;DHT22;244;48.508;9.052;2024-03-29T15:40:09;23.10;1.00
516;DHT22;244;48.508;9.052;2024-03-29T15:42:38;22.70;1.00
516;DHT22;244;48.508;9.052;2024-03-29T15:45:08;22.40;1.00
516;DHT22;244;48.508;9.052;2024-03-29T15:47:35;22.10;1.00
516;DHT22;244;48.508;9.052;2024-03-29T15:50:02;22.00;1.00
516;DHT22;244;48.508;9.052;2024-03-29T15:52:29;21.80;1.00
516;DHT22;244;48.508;9.052;2024-03-29T15:54:56;21.70;1.00
516;DHT22;244;48.508;9.052;2024-03-29T15:57:23;21.60;1.00
516;DHT22;244;48.508;9.052;2024-03-29T15:59:51;21.40;1.00
516;DHT22;244;48.508;9.052;2024-03-29T16:02:18;21.20;1.00
516;DHT22;244;48.508;9.052;2024-03-29T16:04:45;21.00;1.00
516;DHT22;244;48.508;9.052;2024-03-29T16:07:12;20.80;1.00
516;DHT22;244;48.508;9.052;2024-03-29T16:09:39;20.60;1.00
516;DHT22;244;48.508;9.052;2024-03-29T16:12:06;20.40;1.00
516;DHT22;244;48.508;9.052;2024-03-29T16:14:33;20.20;1.00
516;DHT22;244;48.508;9.052;2024-03-29T16:17:01;20.10;1.00
516;DHT22;244;48.508;9.052;2024-03-29T16:19:28;19.90;1.00
516;DHT22;244;48.508;9.052;2024-03-29T16:21:54;19.80;1.00
516;DHT22;244;48.508;9.052;2024-03-29T16:24:21;19.70;1.00
516;DHT22;244;48.508;9.052;2024-03-29T16:26:47;19.50;1.50
516;DHT22;244;48.508;9.052;2024-03-29T16:29:14;19.40;1.00
516;DHT22;244;48.508;9.052;2024-03-29T16:31:40;19.20;1.20
516;DHT22;244;48.508;9.052;2024-03-29T16:34:08;19.10;1.30
516;DHT22;244;48.508;9.052;2024-03-29T16:36:34;19.00;1.50
516;DHT22;244;48.508;9.052;2024-03-29T16:39:01;18.90;1.70
516;DHT22;244;48.508;9.052;2024-03-29T16:41:27;18.80;1.90
516;DHT22;244;48.508;9.052;2024-03-29T16:43:54;18.70;2.20
516;DHT22;244;48.508;9.052;2024-03-29T16:46:21;18.60;2.60
516;DHT22;244;48.508;9.052;2024-03-29T16:48:48;18.50;2.40
516;DHT22;244;48.508;9.052;2024-03-29T16:51:15;18.40;2.40